Time;durP1;ratioP1;P1;durP2;ratioP2;P2;SDS_P1;SDS_P2;PMS_P1;PMS_P2;Temp;Humidity;BMP_temperature;BMP_pressure;BME280_temperature;BME280_humidity;BME280_pressure;Samples;Min_cycle;Max_cycle;Signal;HPM_P1;HPM_P2
2023/09/16 00:01:37;;;;;;;;;;;;;;;-144.99;100.00;52299.31;5001299;28;19972;-77
2023/09/16 00:04:05;;;;;;;;;;;;;;;-144.99;100.00;52297.25;5003857;28;20041;-78
2023/09/16 00:06:31;;;;;;;;;;;;;;;-144.99;100.00;52264.66;4996207;28;20057;-78
2023/09/16 00:08:57;;;;;;;;;;;;;;;-144.99;100.00;52313.56;5002679;28;20004;-79
2023/09/16 00:11:25;;;;;;;;;;;;;;;-144.99;100.00;52321.72;4998006;28;20029;-78
2023/09/16 00:13:52;;;;;;;;;;;;;;;-144.99;100.00;52301.34;4990276;28;19941;-77
2023/09/16 00:16:18;;;;;;;;;;;;;;;-144.99;100.00;52293.19;5000083;28;19973;-77
2023/09/16 00:18:45;;;;;;;;;;;;;;;-144.99;100.00;52264.66;5006298;28;19938;-78
2023/09/16 00:21:14;;;;;;;;;;;;;;;-144.99;100.00;52309.50;5012674;28;20532;-80
2023/09/16 00:23:42;;;;;;;;;;;;;;;-144.99;100.00;52321.72;5020864;28;20001;-77
2023/09/16 00:26:08;;;;;;;;;;;;;;;-144.99;100.00;52317.66;5022745;28;20375;-78
2023/09/16 00:28:35;;;;;;;;;;;;;;;-144.99;100.00;52276.88;5004087;28;19941;-77
2023/09/16 00:31:03;;;;;;;;;;;;;;;-144.99;100.00;52311.53;5002371;28;19947;-77
2023/09/16 00:33:29;;;;;;;;;;;;;;;-144.99;100.00;52305.41;5003822;28;19979;-77
2023/09/16 00:35:56;;;;;;;;;;;;;;;-144.99;100.00;52329.88;5002413;28;19974;-76
2023/09/16 00:38:24;;;;;;;;;;;;;;;-144.99;100.00;52295.22;4996064;28;19943;-78
2023/09/16 00:40:50;;;;;;;;;;;;;;;-144.99;100.00;52285.03;4999543;28;19974;-78
2023/09/16 00:43:17;;;;;;;;;;;;;;;-144.99;100.00;52289.13;5006232;28;19995;-78
2023/09/16 00:45:43;;;;;;;;;;;;;;;-144.99;100.00;52305.41;5012233;28;19964;-77
2023/09/16 00:48:13;;;;;;;;;;;;;;;-144.99;100.00;52260.56;4994420;28;20477;-79
2023/09/16 00:50:41;;;;;;;;;;;;;;;-144.99;100.00;52295.22;4997737;28;19945;-77
2023/09/16 00:53:09;;;;;;;;;;;;;;;-144.99;100.00;52280.97;4999797;28;19945;-75
2023/09/16 00:55:38;;;;;;;;;;;;;;;-144.99;100.00;52301.34;5008276;28;19960;-76
2023/09/16 00:58:04;;;;;;;;;;;;;;;-144.99;100.00;52285.03;5012244;28;20059;-77
2023/09/16 01:00:31;;;;;;;;;;;;;;;-144.99;100.00;52329.88;5008270;28;19978;-78
2023/09/16 01:02:59;;;;;;;;;;;;;;;-144.99;100.00;52297.25;5002597;28;19943;-78
2023/09/16 01:05:25;;;;;;;;;;;;;;;-144.99;100.00;52285.03;5009993;28;20053;-80
2023/09/16 01:07:52;;;;;;;;;;;;;;;-144.99;100.00;52260.56;5001362;28;20485;-78
2023/09/16 01:10:20;;;;;;;;;;;;;;;-144.99;100.00;52313.56;5001104;28;19951;-79
2023/09/16 01:12:49;;;;;;;;;;;;;;;-144.99;100.00;52301.34;5003702;28;19963;-79
2023/09/16 01:15:16;;;;;;;;;;;;;;;-144.99;100.00;52325.81;5011006;28;19993;-78
2023/09/16 01:17:46;;;;;;;;;;;;;;;-144.99;100.00;52256.50;5004575;28;19946;-78
2023/09/16 01:20:15;;;;;;;;;;;;;;;-144.99;100.00;52293.19;5007415;28;20526;-79
2023/09/16 01:22:45;;;;;;;;;;;;;;;-144.99;100.00;52289.13;5016207;28;19947;-78
2023/09/16 01:25:13;;;;;;;;;;;;;;;-144.99;100.00;52297.25;5001168;28;19961;-79
2023/09/16 01:27:39;;;;;;;;;;;;;;;-144.99;100.00;52297.25;5011805;28;19946;-78
2023/09/16 01:30:07;;;;;;;;;;;;;;;-144.99;100.00;52297.25;5011612;28;20027;-81
2023/09/16 01:32:40;;;;;;;;;;;;;;;-144.99;100.00;52301.34;5012795;28;19991;-82
2023/09/16 01:35:08;;;;;;;;;;;;;;;-144.99;100.00;52285.03;5011794;28;19964;-82
2023/09/16 01:37:36;;;;;;;;;;;;;;;-144.99;100.00;52295.22;5017096;28;20044;-78
2023/09/16 01:40:11;;;;;;;;;;;;;;;-144.99;100.00;52301.34;5014019;28;19951;-77
2023/09/16 01:42:39;;;;;;;;;;;;;;;-144.99;100.00;52289.13;5020537;28;20160;-81
2023/09/16 01:45:07;;;;;;;;;;;;;;;-144.99;100.00;52268.72;5031463;28;20007;-80
2023/09/16 01:47:33;;;;;;;;;;;;;;;-144.99;100.00;52325.81;5019988;28;20226;-82
2023/09/16 01:49:59;;;;;;;;;;;;;;;-144.99;100.00;52309.50;5022621;28;19949;-78
2023/09/16 01:52:26;;;;;;;;;;;;;;;-144.99;100.00;52293.19;5014167;28;19941;-81
2023/09/16 01:54:52;;;;;;;;;;;;;;;-144.99;100.00;52301.34;5022929;28;19963;-82
2023/09/16 01:57:19;;;;;;;;;;;;;;;-144.99;100.00;52283.00;5021390;28;19996;-83
2023/09/16 01:59:47;;;;;;;;;;;;;;;-144.99;100.00;52264.66;5009740;28;19941;-80
2023/09/16 02:02:13;;;;;;;;;;;;;;;-144.99;100.00;52248.34;5004903;28;19948;-82
2023/09/16 02:04:43;;;;;;;;;;;;;;;-144.99;100.00;52325.81;5014323;28;19979;-83
2023/09/16 02:07:10;;;;;;;;;;;;;;;-144.99;100.00;52276.88;5008785;28;19972;-81
2023/09/16 02:09:36;;;;;;;;;;;;;;;-144.99;100.00;52309.50;5004496;28;19950;-78
2023/09/16 02:12:03;;;;;;;;;;;;;;;-144.99;100.00;52280.97;5003364;28;20402;-76
2023/09/16 02:14:29;;;;;;;;;;;;;;;-144.99;100.00;52289.13;5009892;28;19968;-72
2023/09/16 02:16:57;;;;;;;;;;;;;;;-144.99;100.00;52276.88;4995570;28;20052;-75
2023/09/16 02:19:25;;;;;;;;;;;;;;;-144.99;100.00;52276.88;5003846;28;20037;-74
2023/09/16 02:21:52;;;;;;;;;;;;;;;-144.99;100.00;52293.19;5004577;28;19941;-74
2023/09/16 02:24:18;;;;;;;;;;;;;;;-144.99;100.00;52289.13;5004908;28;19944;-73
2023/09/16 02:26:44;;;;;;;;;;;;;;;-144.99;100.00;52313.56;4994456;28;20044;-75
2023/09/16 02:29:11;;;;;;;;;;;;;;;-144.99;100.00;52258.53;5000003;28;20716;-72
2023/09/16 02:31:37;;;;;;;;;;;;;;;-144.99;100.00;52329.88;5000886;28;20402;-74
2023/09/16 02:34:05;;;;;;;;;;;;;;;-144.99;100.00;52293.19;5003763;28;20036;-74
2023/09/16 02:36:31;;;;;;;;;;;;;;;-144.99;100.00;52313.56;4990756;28;20006;-74
2023/09/16 02:38:58;;;;;;;;;;;;;;;-144.99;100.00;52285.03;4997588;28;19947;-75
2023/09/16 02:41:24;;;;;;;;;;;;;;;-144.99;100.00;52295.22;4998279;28;20033;-74
2023/09/16 02:43:51;;;;;;;;;;;;;;;-144.99;100.00;52289.13;5005023;28;20038;-75
2023/09/16 02:46:17;;;;;;;;;;;;;;;-144.99;100.00;52278.91;5005689;28;20007;-74
2023/09/16 02:48:44;;;;;;;;;;;;;;;-144.99;100.00;52309.50;5000352;28;20029;-74
2023/09/16 02:51:12;;;;;;;;;;;;;;;-144.99;100.00;52293.19;4992288;28;19947;-74
2023/09/16 02:53:39;;;;;;;;;;;;;;;-144.99;100.00;52297.25;5008299;28;20053;-73
2023/09/16 02:56:07;;;;;;;;;;;;;;;-144.99;100.00;52278.91;4996507;28;19964;-74
2023/09/16 02:58:34;;;;;;;;;;;;;;;-144.99;100.00;52313.56;4994436;28;20021;-80
2023/09/16 03:01:00;;;;;;;;;;;;;;;-144.99;100.00;52280.97;5001985;28;19947;-77
2023/09/16 03:03:27;;;;;;;;;;;;;;;-144.99;100.00;52327.84;5008576;28;20042;-80
2023/09/16 03:05:53;;;;;;;;;;;;;;;-144.99;100.00;52280.97;4998165;28;20023;-80
2023/09/16 03:08:21;;;;;;;;;;;;;;;-144.99;100.00;52276.88;5002661;28;19972;-79
2023/09/16 03:10:47;;;;;;;;;;;;;;;-144.99;100.00;52305.41;5002987;28;19941;-79
2023/09/16 03:13:14;;;;;;;;;;;;;;;-144.99;100.00;52321.72;5002016;28;19997;-74
2023/09/16 03:15:42;;;;;;;;;;;;;;;-144.99;100.00;52315.59;4998587;28;20522;-75
2023/09/16 03:18:09;;;;;;;;;;;;;;;-144.99;100.00;52301.34;4997621;28;20041;-75
2023/09/16 03:20:35;;;;;;;;;;;;;;;-144.99;100.00;52297.25;4998002;28;20468;-75
2023/09/16 03:23:02;;;;;;;;;;;;;;;-144.99;100.00;52297.25;4992676;28;20043;-76
2023/09/16 03:25:30;;;;;;;;;;;;;;;-144.99;100.00;52280.97;4999087;28;20043;-74
2023/09/16 03:27:56;;;;;;;;;;;;;;;-144.99;100.00;52260.56;4996192;28;19989;-75
2023/09/16 03:30:22;;;;;;;;;;;;;;;-144.99;100.00;52297.25;4996439;28;20039;-76
2023/09/16 03:32:49;;;;;;;;;;;;;;;-144.99;100.00;52301.34;4994987;28;19995;-74
2023/09/16 03:35:15;;;;;;;;;;;;;;;-144.99;100.00;52299.31;4999241;28;20442;-73
2023/09/16 03:37:42;;;;;;;;;;;;;;;-144.99;100.00;52303.38;5004338;28;20038;-76
2023/09/16 03:40:08;;;;;;;;;;;;;;;-144.99;100.00;52321.72;5002806;28;20398;-75
2023/09/16 03:42:36;;;;;;;;;;;;;;;-144.99;100.00;52283.00;5008746;28;20030;-76
2023/09/16 03:45:02;;;;;;;;;;;;;;;-144.99;100.00;52299.31;5014194;28;19991;-76
2023/09/16 03:47:29;;;;;;;;;;;;;;;-144.99;100.00;52295.22;5003312;28;19965;-80
2023/09/16 03:49:55;;;;;;;;;;;;;;;-144.99;100.00;52285.03;5009357;28;20378;-80
2023/09/16 03:52:22;;;;;;;;;;;;;;;-144.99;100.00;52303.38;5002340;28;20005;-81
2023/09/16 03:54:48;;;;;;;;;;;;;;;-144.99;100.00;52325.81;5003474;28;19997;-80
2023/09/16 03:57:15;;;;;;;;;;;;;;;-144.99;100.00;52285.03;5008544;28;20004;-80
2023/09/16 03:59:43;;;;;;;;;;;;;;;-144.99;100.00;52264.66;5002874;28;19998;-76
2023/09/16 04:02:09;;;;;;;;;;;;;;;-144.99;100.00;52289.13;5001143;28;20540;-73
2023/09/16 04:04:36;;;;;;;;;;;;;;;-144.99;100.00;52295.22;5007209;28;19990;-76
2023/09/16 04:07:02;;;;;;;;;;;;;;;-144.99;100.00;52297.25;5005944;28;19965;-81
2023/09/16 04:09:29;;;;;;;;;;;;;;;-144.99;100.00;52333.94;4996945;28;20403;-75
2023/09/16 04:11:55;;;;;;;;;;;;;;;-144.99;100.00;52301.34;5008084;28;19983;-78
2023/09/16 04:14:23;;;;;;;;;;;;;;;-144.99;100.00;52291.16;5003045;28;19944;-79
2023/09/16 04:16:51;;;;;;;;;;;;;;;-144.99;100.00;52297.25;4996664;28;20132;-77
2023/09/16 04:19:17;;;;;;;;;;;;;;;-144.99;100.00;52293.19;4994981;28;20492;-75
2023/09/16 04:21:46;;;;;;;;;;;;;;;-144.99;100.00;52272.81;5002204;28;20033;-77
2023/09/16 04:24:12;;;;;;;;;;;;;;;-144.99;100.00;52276.88;4996341;28;20000;-77
2023/09/16 04:26:39;;;;;;;;;;;;;;;-144.99;100.00;52289.13;4993694;28;20009;-75
2023/09/16 04:29:05;;;;;;;;;;;;;;;-144.99;100.00;52309.50;5003220;28;20466;-77
2023/09/16 04:31:32;;;;;;;;;;;;;;;-144.99;100.00;52313.56;5007484;28;20037;-77
2023/09/16 04:33:59;;;;;;;;;;;;;;;-144.99;100.00;52309.50;5007807;28;20040;-74
2023/09/16 04:36:26;;;;;;;;;;;;;;;-144.99;100.00;52280.97;5016169;28;20488;-75
2023/09/16 04:38:52;;;;;;;;;;;;;;;-144.99;100.00;52262.63;5010492;28;19941;-77
2023/09/16 04:41:20;;;;;;;;;;;;;;;-144.99;100.00;52319.69;5000368;28;20010;-80
2023/09/16 04:43:49;;;;;;;;;;;;;;;-144.99;100.00;52280.97;5021637;28;19941;-77
2023/09/16 04:46:16;;;;;;;;;;;;;;;-144.99;100.00;52321.72;5003964;28;20035;-77
2023/09/16 04:48:43;;;;;;;;;;;;;;;-144.99;100.00;52313.56;5013781;28;19944;-79
2023/09/16 04:51:11;;;;;;;;;;;;;;;-144.99;100.00;52297.25;5008772;28;19997;-80
2023/09/16 04:53:37;;;;;;;;;;;;;;;-144.99;100.00;52301.34;5006075;28;19944;-78
2023/09/16 04:56:05;;;;;;;;;;;;;;;-144.99;100.00;52301.34;5017716;28;20027;-76
2023/09/16 04:58:31;;;;;;;;;;;;;;;-144.99;100.00;52287.06;5016268;28;19975;-77
2023/09/16 05:00:59;;;;;;;;;;;;;;;-144.99;100.00;52315.59;5009840;28;20529;-78
2023/09/16 05:03:25;;;;;;;;;;;;;;;-144.99;100.00;52305.41;5017644;28;19967;-78
2023/09/16 05:05:52;;;;;;;;;;;;;;;-144.99;100.00;52297.25;5003935;28;20067;-77
2023/09/16 05:08:20;;;;;;;;;;;;;;;-144.99;100.00;52305.41;5012130;28;19977;-75
2023/09/16 05:10:52;;;;;;;;;;;;;;;-144.99;100.00;52293.19;5006532;28;20034;-76
2023/09/16 05:13:18;;;;;;;;;;;;;;;-144.99;100.00;52293.19;5008867;28;20025;-76
2023/09/16 05:15:47;;;;;;;;;;;;;;;-144.99;100.00;52285.03;5001189;28;20009;-76
2023/09/16 05:18:13;;;;;;;;;;;;;;;-144.99;100.00;52272.81;4998014;28;20317;-76
2023/09/16 05:20:39;;;;;;;;;;;;;;;-144.99;100.00;52309.50;5002769;28;19947;-76
2023/09/16 05:23:06;;;;;;;;;;;;;;;-144.99;100.00;52280.97;5008865;28;19952;-79
2023/09/16 05:25:34;;;;;;;;;;;;;;;-144.99;100.00;52291.16;5007963;28;19965;-76
2023/09/16 05:28:00;;;;;;;;;;;;;;;-144.99;100.00;52283.00;4999609;28;20022;-74
2023/09/16 05:30:26;;;;;;;;;;;;;;;-144.99;100.00;52272.81;5004345;28;19989;-76
2023/09/16 05:32:53;;;;;;;;;;;;;;;-144.99;100.00;52325.81;4995541;28;19938;-75
2023/09/16 05:35:19;;;;;;;;;;;;;;;-144.99;100.00;52299.31;5008782;28;19958;-77
2023/09/16 05:37:46;;;;;;;;;;;;;;;-144.99;100.00;52272.81;4995153;28;20409;-80
2023/09/16 05:40:12;;;;;;;;;;;;;;;-144.99;100.00;52268.72;5020412;28;20107;-79
2023/09/16 05:42:40;;;;;;;;;;;;;;;-144.99;100.00;52309.50;5027065;28;20006;-79
2023/09/16 05:45:08;;;;;;;;;;;;;;;-144.99;100.00;52272.81;5009863;28;20484;-78
2023/09/16 05:47:34;;;;;;;;;;;;;;;-144.99;100.00;52293.19;5010638;28;19957;-81
2023/09/16 05:50:00;;;;;;;;;;;;;;;-144.99;100.00;52297.25;5016948;28;19942;-79
2023/09/16 05:52:27;;;;;;;;;;;;;;;-144.99;100.00;52276.88;5005221;28;19967;-75
2023/09/16 05:54:53;;;;;;;;;;;;;;;-144.99;100.00;52252.44;4996440;28;20394;-73
2023/09/16 05:57:20;;;;;;;;;;;;;;;-144.99;100.00;52299.31;5003762;28;19970;-75
2023/09/16 05:59:47;;;;;;;;;;;;;;;-144.99;100.00;52276.88;5000876;28;20045;-71
2023/09/16 06:02:15;;;;;;;;;;;;;;;-144.99;100.00;52260.56;5007491;28;20027;-72
2023/09/16 06:04:42;;;;;;;;;;;;;;;-144.99;100.00;52303.38;4997270;28;20038;-72
2023/09/16 06:07:08;;;;;;;;;;;;;;;-144.99;100.00;52317.66;5001510;28;19967;-70
2023/09/16 06:09:35;;;;;;;;;;;;;;;-144.99;100.00;52297.25;5002861;28;20031;-70
2023/09/16 06:12:01;;;;;;;;;;;;;;;-144.99;100.00;52272.81;5004657;28;20004;-72
2023/09/16 06:14:28;;;;;;;;;;;;;;;-144.99;100.00;52285.03;4998613;28;19975;-71
2023/09/16 06:16:55;;;;;;;;;;;;;;;-144.99;100.00;52270.78;5001446;28;19979;-70
2023/09/16 06:19:22;;;;;;;;;;;;;;;-144.99;100.00;52293.19;5001240;28;20042;-72
2023/09/16 06:21:49;;;;;;;;;;;;;;;-144.99;100.00;52305.41;5001997;28;20401;-69
2023/09/16 06:24:15;;;;;;;;;;;;;;;-144.99;100.00;52293.19;4998032;28;19940;-71
2023/09/16 06:26:41;;;;;;;;;;;;;;;-144.99;100.00;52236.13;4995132;28;20453;-71
2023/09/16 06:29:08;;;;;;;;;;;;;;;-144.99;100.00;52264.66;5001658;28;19945;-70
2023/09/16 06:31:34;;;;;;;;;;;;;;;-144.99;100.00;52270.78;4995594;28;20034;-69
2023/09/16 06:34:03;;;;;;;;;;;;;;;-144.99;100.00;52254.47;4990420;28;19989;-71
2023/09/16 06:36:30;;;;;;;;;;;;;;;-144.99;100.00;52313.56;4997094;28;20024;-70
2023/09/16 06:38:56;;;;;;;;;;;;;;;-144.99;100.00;52276.88;5002772;28;19991;-71
2023/09/16 06:41:23;;;;;;;;;;;;;;;-144.99;100.00;52225.94;5003215;28;20104;-69
2023/09/16 06:43:50;;;;;;;;;;;;;;;-144.99;100.00;52268.72;5002575;28;20104;-71
2023/09/16 06:46:17;;;;;;;;;;;;;;;-144.99;100.00;52260.56;5003263;28;20000;-74
2023/09/16 06:48:45;;;;;;;;;;;;;;;-144.99;100.00;52244.28;4992456;28;22213;-74
2023/09/16 06:51:13;;;;;;;;;;;;;;;-144.99;100.00;52252.44;4999836;28;20032;-75
2023/09/16 06:53:39;;;;;;;;;;;;;;;-144.99;100.00;52293.19;5007238;28;20038;-74
2023/09/16 06:56:05;;;;;;;;;;;;;;;-144.99;100.00;52215.75;4993376;28;19966;-74
2023/09/16 06:58:32;;;;;;;;;;;;;;;-144.99;100.00;52238.16;4992358;28;19993;-74
2023/09/16 07:00:58;;;;;;;;;;;;;;;-144.99;100.00;52199.44;5000254;28;19976;-74
2023/09/16 07:03:25;;;;;;;;;;;;;;;-144.99;100.00;52240.19;4997325;28;20040;-75
2023/09/16 07:05:51;;;;;;;;;;;;;;;-144.99;100.00;52248.34;4997249;28;20044;-72
2023/09/16 07:08:19;;;;;;;;;;;;;;;-144.99;100.00;52262.63;4996559;28;19977;-71
2023/09/16 07:10:46;;;;;;;;;;;;;;;-144.99;100.00;52232.03;4993222;28;20056;-69
2023/09/16 07:13:12;;;;;;;;;;;;;;;-144.99;100.00;52264.66;4997848;28;19989;-76
2023/09/16 07:15:39;;;;;;;;;;;;;;;-144.99;100.00;52276.88;4995800;28;20022;-74
2023/09/16 07:18:05;;;;;;;;;;;;;;;-144.99;100.00;52309.50;5003419;28;19962;-75
2023/09/16 07:20:32;;;;;;;;;;;;;;;-144.99;100.00;52280.97;5003790;28;19942;-75
2023/09/16 07:22:58;;;;;;;;;;;;;;;-144.99;100.00;52260.56;5005374;28;20030;-76
2023/09/16 07:25:26;;;;;;;;;;;;;;;-144.99;100.00;52232.03;4994563;28;20059;-76
2023/09/16 07:27:52;;;;;;;;;;;;;;;-144.99;100.00;52252.44;4991982;28;20055;-76
2023/09/16 07:30:19;;;;;;;;;;;;;;;-144.99;100.00;52268.72;5001183;28;19983;-74
2023/09/16 07:32:45;;;;;;;;;;;;;;;-144.99;100.00;52260.56;5003382;28;19943;-75
2023/09/16 07:35:12;;;;;;;;;;;;;;;-144.99;98.63;52227.97;5003893;28;20040;-77
2023/09/16 07:37:38;;;;;;;;;;;;;;;-144.99;96.73;52230.00;5004955;28;20440;-77
2023/09/16 07:40:05;;;;;;;;;;;;;;;-144.99;96.24;52258.53;4998043;28;19978;-73
2023/09/16 07:42:35;;;;;;;;;;;;;;;-144.99;95.86;52240.19;5009718;28;19972;-73
2023/09/16 07:45:02;;;;;;;;;;;;;;;-144.99;95.47;52258.53;5007718;28;19963;-76
2023/09/16 07:47:28;;;;;;;;;;;;;;;-144.99;93.80;52215.75;4996176;28;20023;-76
2023/09/16 07:49:54;;;;;;;;;;;;;;;-144.99;95.20;52240.19;4990416;28;19946;-76
2023/09/16 07:52:21;;;;;;;;;;;;;;;-144.99;94.23;52203.50;5002510;28;20495;-76
2023/09/16 07:54:47;;;;;;;;;;;;;;;-144.99;93.98;52223.88;4996967;28;19950;-77
2023/09/16 07:57:14;;;;;;;;;;;;;;;-144.99;93.46;52248.34;5003780;28;20353;-76
2023/09/16 07:59:42;;;;;;;;;;;;;;;-144.99;93.63;52240.19;4996610;28;20366;-75
2023/09/16 08:02:08;;;;;;;;;;;;;;;-144.99;93.60;52236.13;5002124;28;20029;-75
2023/09/16 08:04:34;;;;;;;;;;;;;;;-144.99;94.12;52195.34;4999079;28;20343;-76
2023/09/16 08:07:01;;;;;;;;;;;;;;;-144.99;94.56;52211.66;4989782;28;19978;-76
2023/09/16 08:09:27;;;;;;;;;;;;;;;-144.99;93.02;52236.13;4989439;28;19989;-76
2023/09/16 08:11:54;;;;;;;;;;;;;;;-144.99;93.58;52219.81;4996403;28;20317;-76
2023/09/16 08:14:20;;;;;;;;;;;;;;;-144.99;93.94;52268.72;4992432;28;20586;-77
2023/09/16 08:16:48;;;;;;;;;;;;;;;-144.99;93.78;52252.44;4997889;28;19972;-76
2023/09/16 08:19:16;;;;;;;;;;;;;;;-144.99;93.74;52238.16;4991560;28;19981;-74
2023/09/16 08:21:43;;;;;;;;;;;;;;;-144.99;93.64;52207.59;5001924;28;19962;-75
2023/09/16 08:24:09;;;;;;;;;;;;;;;-144.99;93.76;52223.88;5006461;28;19949;-76
2023/09/16 08:26:35;;;;;;;;;;;;;;;-144.99;94.01;52227.97;5004706;28;19960;-75
2023/09/16 08:29:02;;;;;;;;;;;;;;;-144.99;93.99;52244.28;5004218;28;20046;-77
2023/09/16 08:31:28;;;;;;;;;;;;;;;-144.99;93.79;52240.19;5001015;28;19952;-76
2023/09/16 08:34:00;;;;;;;;;;;;;;;-144.99;94.73;52285.03;5006199;28;19948;-76
2023/09/16 08:36:27;;;;;;;;;;;;;;;-144.99;94.94;52219.81;4998630;28;20079;-76
2023/09/16 08:38:53;;;;;;;;;;;;;;;-144.99;94.97;52195.34;4999360;28;19973;-76
2023/09/16 08:41:22;;;;;;;;;;;;;;;-144.99;94.55;52256.50;4999686;28;19944;-78
2023/09/16 08:43:52;;;;;;;;;;;;;;;-144.99;95.06;52219.81;4999710;28;20016;-74
2023/09/16 08:46:22;;;;;;;;;;;;;;;-144.99;94.25;52260.56;4994069;28;20379;-78
2023/09/16 08:48:50;;;;;;;;;;;;;;;-144.99;93.76;52232.03;4995064;28;20600;-77
2023/09/16 08:51:20;;;;;;;;;;;;;;;-144.99;93.44;52264.66;4994484;28;20043;-76
2023/09/16 08:53:48;;;;;;;;;;;;;;;-144.99;93.01;52276.88;5007582;28;19960;-76
2023/09/16 08:56:15;;;;;;;;;;;;;;;-144.99;93.40;52280.97;5010714;28;20015;-76
2023/09/16 08:58:42;;;;;;;;;;;;;;;-144.99;93.98;52248.34;5014297;28;19991;-77
2023/09/16 09:01:09;;;;;;;;;;;;;;;-144.99;94.57;52227.97;5004698;28;20019;-76
2023/09/16 09:03:35;;;;;;;;;;;;;;;-144.99;94.48;52236.13;5012390;28;19946;-78
2023/09/16 09:06:03;;;;;;;;;;;;;;;-144.99;94.60;52183.13;5014734;28;20009;-81
2023/09/16 09:08:32;;;;;;;;;;;;;;;-144.99;94.25;52227.97;5024345;28;19968;-78
2023/09/16 09:10:59;;;;;;;;;;;;;;;-144.99;93.03;52225.94;5008306;28;19944;-77
2023/09/16 09:13:26;;;;;;;;;;;;;;;-144.99;92.34;52195.34;5006365;28;20483;-77
2023/09/16 09:15:59;;;;;;;;;;;;;;;-144.99;90.96;52227.97;5017301;28;20007;-77
2023/09/16 09:18:26;;;;;;;;;;;;;;;-144.99;90.25;52211.66;5010430;28;20014;-79
2023/09/16 09:20:52;;;;;;;;;;;;;;;-144.99;89.59;52240.19;5022875;28;19942;-77
2023/09/16 09:23:19;;;;;;;;;;;;;;;-144.99;89.11;52215.75;5019544;28;19985;-76
2023/09/16 09:25:47;;;;;;;;;;;;;;;-144.99;87.78;52211.66;5021099;28;19983;-77
2023/09/16 09:28:14;;;;;;;;;;;;;;;-144.99;87.51;52209.63;5023775;28;19958;-78
2023/09/16 09:30:41;;;;;;;;;;;;;;;-144.99;88.88;52203.50;5020836;28;19955;-75
2023/09/16 09:33:13;;;;;;;;;;;;;;;-144.99;89.43;52223.88;5019723;28;19945;-76
2023/09/16 09:35:39;;;;;;;;;;;;;;;-144.99;89.03;52185.16;5015119;28;19958;-76
2023/09/16 09:38:06;;;;;;;;;;;;;;;-144.99;89.21;52211.66;5014349;28;19972;-75
2023/09/16 09:40:32;;;;;;;;;;;;;;;-144.99;89.18;52232.03;5010292;28;19992;-76
2023/09/16 09:43:01;;;;;;;;;;;;;;;-144.99;88.94;52223.88;5020968;28;19941;-76
2023/09/16 09:45:29;;;;;;;;;;;;;;;-144.99;88.07;52219.81;5017259;28;19959;-75
2023/09/16 09:47:56;;;;;;;;;;;;;;;-144.99;86.64;52211.66;5023185;28;19986;-76
2023/09/16 09:50:23;;;;;;;;;;;;;;;-144.99;87.35;52223.88;5012019;28;19952;-76
2023/09/16 09:52:51;;;;;;;;;;;;;;;-144.99;88.10;52260.56;5018805;28;19939;-76
2023/09/16 09:55:18;;;;;;;;;;;;;;;-144.99;87.50;52205.53;5014130;28;20027;-77
2023/09/16 09:57:46;;;;;;;;;;;;;;;-144.99;86.98;52244.28;5022433;28;19960;-75
2023/09/16 10:00:16;;;;;;;;;;;;;;;-144.99;86.88;52244.28;5021085;28;19977;-75
2023/09/16 10:02:43;;;;;;;;;;;;;;;-144.99;86.42;52219.81;5026627;28;20046;-75
2023/09/16 10:05:13;;;;;;;;;;;;;;;-144.99;85.56;52232.03;5012337;28;19997;-76
2023/09/16 10:07:40;;;;;;;;;;;;;;;-144.99;84.92;52203.50;5015225;28;19988;-77
2023/09/16 10:10:12;;;;;;;;;;;;;;;-144.99;84.19;52203.50;5007504;28;20017;-75
2023/09/16 10:12:38;;;;;;;;;;;;;;;-144.99;83.82;52166.81;5000392;28;20032;-75
2023/09/16 10:15:07;;;;;;;;;;;;;;;-144.99;82.79;52207.59;5002868;28;20471;-73
2023/09/16 10:17:35;;;;;;;;;;;;;;;-144.99;81.89;52174.97;4993683;28;20046;-74
2023/09/16 10:20:02;;;;;;;;;;;;;;;-144.99;81.21;52179.06;4992754;28;20450;-75
2023/09/16 10:22:30;;;;;;;;;;;;;;;-144.99;81.72;52170.91;5001666;28;20034;-77
2023/09/16 10:24:56;;;;;;;;;;;;;;;-144.99;80.98;52211.66;4998062;28;20004;-76
2023/09/16 10:27:23;;;;;;;;;;;;;;;-144.99;80.41;52185.16;5004029;28;20004;-75
2023/09/16 10:29:50;;;;;;;;;;;;;;;-144.99;80.19;52181.09;4997562;28;20455;-75
2023/09/16 10:32:17;;;;;;;;;;;;;;;-144.99;79.39;52166.81;4992983;28;20004;-76
2023/09/16 10:34:46;;;;;;;;;;;;;;;-144.99;79.23;52203.50;4996443;28;20036;-76
2023/09/16 10:37:15;;;;;;;;;;;;;;;-144.99;78.98;52174.97;5005198;28;20447;-77
2023/09/16 10:39:42;;;;;;;;;;;;;;;-144.99;78.57;52154.59;5000662;28;19971;-76
2023/09/16 10:42:09;;;;;;;;;;;;;;;-144.99;77.28;52187.19;4993358;28;19986;-77
2023/09/16 10:44:36;;;;;;;;;;;;;;;-144.99;77.83;52166.81;5003097;28;20040;-78
2023/09/16 10:47:04;;;;;;;;;;;;;;;-144.99;77.53;52179.06;5007282;28;19998;-77
2023/09/16 10:49:30;;;;;;;;;;;;;;;-144.99;77.37;52160.72;5002366;28;20518;-77
2023/09/16 10:52:01;;;;;;;;;;;;;;;-144.99;76.15;52174.97;5000916;28;19945;-76
2023/09/16 10:54:30;;;;;;;;;;;;;;;-144.99;76.19;52170.91;4999350;28;19984;-74
2023/09/16 10:56:59;;;;;;;;;;;;;;;-144.99;76.39;52174.97;4999830;28;19962;-74
2023/09/16 10:59:27;;;;;;;;;;;;;;;-144.99;76.46;52168.84;5005923;28;20051;-76
2023/09/16 11:01:57;;;;;;;;;;;;;;;-144.99;76.58;52179.06;5002139;28;20036;-74
2023/09/16 11:04:24;;;;;;;;;;;;;;;-144.99;75.08;52187.19;5003511;28;20512;-76
2023/09/16 11:06:51;;;;;;;;;;;;;;;-144.99;74.50;52164.78;4998968;28;20055;-77
2023/09/16 11:09:19;;;;;;;;;;;;;;;-144.99;73.73;52195.34;5006275;28;19986;-76
2023/09/16 11:11:46;;;;;;;;;;;;;;;-144.99;73.92;52203.50;4999194;28;20417;-76
2023/09/16 11:14:13;;;;;;;;;;;;;;;-144.99;73.58;52166.81;4998801;28;19949;-77
2023/09/16 11:16:43;;;;;;;;;;;;;;;-144.99;73.16;52130.13;4995563;28;20027;-77
2023/09/16 11:19:09;;;;;;;;;;;;;;;-144.99;73.15;52150.53;4999492;28;19963;-76
2023/09/16 11:21:36;;;;;;;;;;;;;;;-144.99;72.40;52154.59;5005869;28;20029;-75
2023/09/16 11:24:02;;;;;;;;;;;;;;;-144.99;70.91;52162.75;5001978;28;20506;-76
2023/09/16 11:26:36;;;;;;;;;;;;;;;-144.99;70.67;52134.22;4999669;28;20766;-77
2023/09/16 11:29:02;;;;;;;;;;;;;;;-144.99;70.21;52150.53;5003390;28;19979;-77
2023/09/16 11:31:29;;;;;;;;;;;;;;;-144.99;70.48;52146.44;4998505;28;20041;-75
2023/09/16 11:33:59;;;;;;;;;;;;;;;-144.99;69.60;52117.91;5002403;28;20325;-80
2023/09/16 11:36:33;;;;;;;;;;;;;;;-144.99;68.52;52064.91;5006776;28;20049;-81
2023/09/16 11:39:15;;;;;;;;;;;;;;;-144.99;67.22;52044.53;5005699;28;20008;-81
2023/09/16 11:41:42;;;;;;;;;;;;;;;-144.99;65.14;51995.63;5001555;28;20024;-77
2023/09/16 11:44:09;;;;;;;;;;;;;;;-144.99;65.07;51989.50;5004249;28;19943;-79
2023/09/16 11:46:36;;;;;;;;;;;;;;;-144.99;63.76;52007.84;4999794;28;20332;-77
2023/09/16 11:49:05;;;;;;;;;;;;;;;-144.99;63.57;51942.63;5009209;28;20213;-84
2023/09/16 11:51:32;;;;;;;;;;;;;;;-144.99;63.02;51942.63;5016620;28;19939;-83
2023/09/16 11:53:59;;;;;;;;;;;;;;;-144.99;62.65;51954.88;5009498;28;20562;-81
2023/09/16 11:56:26;;;;;;;;;;;;;;;-144.99;62.61;51995.63;5003959;28;19965;-83
2023/09/16 11:58:55;;;;;;;;;;;;;;;-144.99;62.55;51983.41;5000657;28;19979;-79
2023/09/16 12:01:22;;;;;;;;;;;;;;;-144.99;62.50;51983.41;5006390;28;19947;-86
2023/09/16 12:03:49;;;;;;;;;;;;;;;-144.99;61.77;51977.28;5012394;28;19981;-81
2023/09/16 12:06:17;;;;;;;;;;;;;;;-144.99;62.44;51960.97;5008341;28;19960;-80
2023/09/16 12:08:45;;;;;;;;;;;;;;;-144.99;61.42;51958.94;5011902;28;19942;-80
2023/09/16 12:11:11;;;;;;;;;;;;;;;-144.99;61.48;52018.03;5004282;28;19942;-83
2023/09/16 12:13:39;;;;;;;;;;;;;;;-144.99;61.47;51950.78;5005571;28;19990;-83
2023/09/16 12:16:09;;;;;;;;;;;;;;;-144.99;61.27;51979.31;5017879;28;19962;-86
2023/09/16 12:18:36;;;;;;;;;;;;;;;-144.99;61.38;51969.13;5015602;28;20053;-80
2023/09/16 12:21:02;;;;;;;;;;;;;;;-144.99;61.58;51991.56;5016323;28;19949;-80